sensor_id;sensor_type;location;lat;lon;timestamp;temperature;humidity
29345;DHT22;16339;48.748;2.222;2022-09-21T00:01:36;15.90;64.10
29345;DHT22;16339;48.748;2.222;2022-09-21T00:04:04;15.80;64.00
29345;DHT22;16339;48.748;2.222;2022-09-21T00:06:36;15.90;63.80
29345;DHT22;16339;48.748;2.222;2022-09-21T00:09:05;15.80;63.80
29345;DHT22;16339;48.748;2.222;2022-09-21T00:11:34;15.80;63.70
29345;DHT22;16339;48.748;2.222;2022-09-21T00:14:05;15.80;63.70
29345;DHT22;16339;48.748;2.222;2022-09-21T00:16:34;15.80;63.80
29345;DHT22;16339;48.748;2.222;2022-09-21T00:19:03;15.80;63.80
29345;DHT22;16339;48.748;2.222;2022-09-21T00:21:32;15.80;63.50
29345;DHT22;16339;48.748;2.222;2022-09-21T00:24:05;15.80;63.50
29345;DHT22;16339;48.748;2.222;2022-09-21T00:26:35;15.70;63.60
29345;DHT22;16339;48.748;2.222;2022-09-21T00:29:04;15.70;63.60
29345;DHT22;16339;48.748;2.222;2022-09-21T00:31:33;15.70;63.50
29345;DHT22;16339;48.748;2.222;2022-09-21T00:34:02;15.70;63.40
29345;DHT22;16339;48.748;2.222;2022-09-21T00:36:33;15.70;63.60
29345;DHT22;16339;48.748;2.222;2022-09-21T00:39:01;15.70;63.60
29345;DHT22;16339;48.748;2.222;2022-09-21T00:41:33;15.60;63.80
29345;DHT22;16339;48.748;2.222;2022-09-21T00:44:24;15.70;63.90
29345;DHT22;16339;48.748;2.222;2022-09-21T00:46:57;15.60;63.60
29345;DHT22;16339;48.748;2.222;2022-09-21T00:49:26;15.60;63.50
29345;DHT22;16339;48.748;2.222;2022-09-21T00:51:57;15.60;63.60
29345;DHT22;16339;48.748;2.222;2022-09-21T00:54:28;15.60;63.50
29345;DHT22;16339;48.748;2.222;2022-09-21T00:57:01;15.60;63.60
29345;DHT22;16339;48.748;2.222;2022-09-21T00:59:35;15.60;63.30
29345;DHT22;16339;48.748;2.222;2022-09-21T01:02:05;15.50;63.10
29345;DHT22;16339;48.748;2.222;2022-09-21T01:04:33;15.50;63.20
29345;DHT22;16339;48.748;2.222;2022-09-21T01:07:05;15.50;63.30
29345;DHT22;16339;48.748;2.222;2022-09-21T01:09:37;15.50;63.30
29345;DHT22;16339;48.748;2.222;2022-09-21T01:12:26;15.50;63.30
29345;DHT22;16339;48.748;2.222;2022-09-21T01:15:18;15.50;63.20
29345;DHT22;16339;48.748;2.222;2022-09-21T01:17:54;15.50;63.30
29345;DHT22;16339;48.748;2.222;2022-09-21T01:26:41;15.50;62.90
29345;DHT22;16339;48.748;2.222;2022-09-21T01:29:18;15.50;63.70
29345;DHT22;16339;48.748;2.222;2022-09-21T01:31:50;15.50;62.90
29345;DHT22;16339;48.748;2.222;2022-09-21T01:34:25;15.50;63.00
29345;DHT22;16339;48.748;2.222;2022-09-21T01:36:57;15.50;63.30
29345;DHT22;16339;48.748;2.222;2022-09-21T01:39:26;15.40;63.50
29345;DHT22;16339;48.748;2.222;2022-09-21T01:41:58;15.40;63.60
29345;DHT22;16339;48.748;2.222;2022-09-21T01:44:30;15.40;63.40
29345;DHT22;16339;48.748;2.222;2022-09-21T01:47:02;15.40;63.50
29345;DHT22;16339;48.748;2.222;2022-09-21T01:49:35;15.40;63.60
29345;DHT22;16339;48.748;2.222;2022-09-21T01:52:10;15.30;63.50
29345;DHT22;16339;48.748;2.222;2022-09-21T01:54:44;15.30;63.80
29345;DHT22;16339;48.748;2.222;2022-09-21T01:57:21;15.30;63.90
29345;DHT22;16339;48.748;2.222;2022-09-21T01:59:55;15.30;63.60
29345;DHT22;16339;48.748;2.222;2022-09-21T02:02:29;15.30;63.50
29345;DHT22;16339;48.748;2.222;2022-09-21T02:05:00;15.30;63.50
29345;DHT22;16339;48.748;2.222;2022-09-21T02:07:30;15.30;63.50
29345;DHT22;16339;48.748;2.222;2022-09-21T02:09:59;15.30;64.30
29345;DHT22;16339;48.748;2.222;2022-09-21T02:12:29;15.30;63.20
29345;DHT22;16339;48.748;2.222;2022-09-21T02:15:01;15.30;63.20
29345;DHT22;16339;48.748;2.222;2022-09-21T02:17:35;15.20;63.00
29345;DHT22;16339;48.748;2.222;2022-09-21T02:20:14;15.20;63.00
29345;DHT22;16339;48.748;2.222;2022-09-21T02:22:53;15.20;63.00
29345;DHT22;16339;48.748;2.222;2022-09-21T02:25:30;15.20;63.10
29345;DHT22;16339;48.748;2.222;2022-09-21T02:28:06;15.10;63.30
29345;DHT22;16339;48.748;2.222;2022-09-21T02:30:40;15.10;63.00
29345;DHT22;16339;48.748;2.222;2022-09-21T02:33:21;15.10;63.30
29345;DHT22;16339;48.748;2.222;2022-09-21T02:35:59;15.10;63.30
29345;DHT22;16339;48.748;2.222;2022-09-21T02:38:34;15.10;63.60
29345;DHT22;16339;48.748;2.222;2022-09-21T02:41:09;15.10;63.80
29345;DHT22;16339;48.748;2.222;2022-09-21T02:43:45;15.00;63.80
29345;DHT22;16339;48.748;2.222;2022-09-21T02:46:20;15.00;63.80
29345;DHT22;16339;48.748;2.222;2022-09-21T02:48:55;15.00;63.70
29345;DHT22;16339;48.748;2.222;2022-09-21T02:51:28;15.10;63.60
29345;DHT22;16339;48.748;2.222;2022-09-21T02:54:02;15.00;63.50
29345;DHT22;16339;48.748;2.222;2022-09-21T02:56:32;15.00;63.50
29345;DHT22;16339;48.748;2.222;2022-09-21T02:59:03;15.10;63.60
29345;DHT22;16339;48.748;2.222;2022-09-21T03:01:35;15.10;63.50
29345;DHT22;16339;48.748;2.222;2022-09-21T03:04:06;15.00;63.40
29345;DHT22;16339;48.748;2.222;2022-09-21T03:06:35;15.00;63.60
29345;DHT22;16339;48.748;2.222;2022-09-21T03:09:04;15.00;63.80
29345;DHT22;16339;48.748;2.222;2022-09-21T03:11:33;14.90;63.60
29345;DHT22;16339;48.748;2.222;2022-09-21T03:14:02;14.90;63.60
29345;DHT22;16339;48.748;2.222;2022-09-21T03:16:36;14.90;63.60
29345;DHT22;16339;48.748;2.222;2022-09-21T03:19:05;14.90;63.70
29345;DHT22;16339;48.748;2.222;2022-09-21T03:21:34;14.90;63.50
29345;DHT22;16339;48.748;2.222;2022-09-21T03:24:03;14.90;63.40
29345;DHT22;16339;48.748;2.222;2022-09-21T03:26:31;14.90;63.40
29345;DHT22;16339;48.748;2.222;2022-09-21T03:29:01;14.80;63.30
29345;DHT22;16339;48.748;2.222;2022-09-21T03:31:31;14.80;63.60
29345;DHT22;16339;48.748;2.222;2022-09-21T03:34:02;14.70;63.90
29345;DHT22;16339;48.748;2.222;2022-09-21T03:36:31;14.70;64.00
29345;DHT22;16339;48.748;2.222;2022-09-21T03:38:59;14.70;64.10
29345;DHT22;16339;48.748;2.222;2022-09-21T03:41:28;14.60;64.10
29345;DHT22;16339;48.748;2.222;2022-09-21T03:43:57;14.60;64.20
29345;DHT22;16339;48.748;2.222;2022-09-21T03:46:25;14.60;64.20
29345;DHT22;16339;48.748;2.222;2022-09-21T03:48:54;14.60;64.00
29345;DHT22;16339;48.748;2.222;2022-09-21T03:51:25;14.60;63.80
29345;DHT22;16339;48.748;2.222;2022-09-21T03:53:55;14.60;63.70
29345;DHT22;16339;48.748;2.222;2022-09-21T03:56:24;14.60;63.70
29345;DHT22;16339;48.748;2.222;2022-09-21T03:58:53;14.60;63.90
29345;DHT22;16339;48.748;2.222;2022-09-21T04:01:22;14.60;64.00
29345;DHT22;16339;48.748;2.222;2022-09-21T04:03:50;14.60;64.10
29345;DHT22;16339;48.748;2.222;2022-09-21T04:06:19;14.50;64.20
29345;DHT22;16339;48.748;2.222;2022-09-21T04:08:50;14.50;64.20
29345;DHT22;16339;48.748;2.222;2022-09-21T04:11:20;14.50;64.10
29345;DHT22;16339;48.748;2.222;2022-09-21T04:13:50;14.50;64.10
29345;DHT22;16339;48.748;2.222;2022-09-21T04:16:21;14.50;64.10
29345;DHT22;16339;48.748;2.222;2022-09-21T04:18:50;14.50;64.30
29345;DHT22;16339;48.748;2.222;2022-09-21T04:21:22;14.40;64.00
29345;DHT22;16339;48.748;2.222;2022-09-21T04:23:54;14.40;63.70
29345;DHT22;16339;48.748;2.222;2022-09-21T04:26:24;14.40;63.90
29345;DHT22;16339;48.748;2.222;2022-09-21T04:28:54;14.40;64.10
29345;DHT22;16339;48.748;2.222;2022-09-21T04:31:24;14.40;64.10
29345;DHT22;16339;48.748;2.222;2022-09-21T04:33:54;14.40;64.00
29345;DHT22;16339;48.748;2.222;2022-09-21T04:36:24;14.40;64.00
29345;DHT22;16339;48.748;2.222;2022-09-21T04:38:59;14.40;64.00
29345;DHT22;16339;48.748;2.222;2022-09-21T04:41:28;14.40;64.00
29345;DHT22;16339;48.748;2.222;2022-09-21T04:43:57;14.40;64.00
29345;DHT22;16339;48.748;2.222;2022-09-21T04:46:25;14.40;64.00
29345;DHT22;16339;48.748;2.222;2022-09-21T04:48:54;14.40;63.90
29345;DHT22;16339;48.748;2.222;2022-09-21T04:51:23;14.40;63.70
29345;DHT22;16339;48.748;2.222;2022-09-21T04:53:52;14.40;63.80
29345;DHT22;16339;48.748;2.222;2022-09-21T04:56:23;14.40;64.00
29345;DHT22;16339;48.748;2.222;2022-09-21T04:58:52;14.40;64.00
29345;DHT22;16339;48.748;2.222;2022-09-21T05:01:21;14.40;63.70
29345;DHT22;16339;48.748;2.222;2022-09-21T05:03:49;14.40;63.70
29345;DHT22;16339;48.748;2.222;2022-09-21T05:06:18;14.40;63.80
29345;DHT22;16339;48.748;2.222;2022-09-21T05:08:47;14.40;64.00
29345;DHT22;16339;48.748;2.222;2022-09-21T05:11:31;14.40;63.90
29345;DHT22;16339;48.748;2.222;2022-09-21T05:13:59;14.40;64.10
29345;DHT22;16339;48.748;2.222;2022-09-21T05:16:28;14.30;64.30
29345;DHT22;16339;48.748;2.222;2022-09-21T05:18:59;14.30;64.60
29345;DHT22;16339;48.748;2.222;2022-09-21T05:21:28;14.30;64.60
29345;DHT22;16339;48.748;2.222;2022-09-21T05:23:57;14.20;64.90
29345;DHT22;16339;48.748;2.222;2022-09-21T05:26:26;14.20;65.20
29345;DHT22;16339;48.748;2.222;2022-09-21T05:28:58;14.20;65.30
29345;DHT22;16339;48.748;2.222;2022-09-21T05:31:35;14.20;65.70
29345;DHT22;16339;48.748;2.222;2022-09-21T05:34:20;14.30;65.90
29345;DHT22;16339;48.748;2.222;2022-09-21T05:36:59;14.30;65.80
29345;DHT22;16339;48.748;2.222;2022-09-21T05:39:30;14.30;65.80
29345;DHT22;16339;48.748;2.222;2022-09-21T05:41:59;14.30;66.30
29345;DHT22;16339;48.748;2.222;2022-09-21T05:44:57;14.30;66.10
29345;DHT22;16339;48.748;2.222;2022-09-21T05:47:34;14.30;66.80
29345;DHT22;16339;48.748;2.222;2022-09-21T05:50:19;14.20;67.20
29345;DHT22;16339;48.748;2.222;2022-09-21T05:52:55;14.20;67.40
29345;DHT22;16339;48.748;2.222;2022-09-21T05:55:37;14.20;67.30
29345;DHT22;16339;48.748;2.222;2022-09-21T05:58:16;14.20;67.10
29345;DHT22;16339;48.748;2.222;2022-09-21T06:00:59;14.20;67.20
29345;DHT22;16339;48.748;2.222;2022-09-21T06:03:31;14.20;67.40
29345;DHT22;16339;48.748;2.222;2022-09-21T06:06:01;14.30;67.50
29345;DHT22;16339;48.748;2.222;2022-09-21T06:08:30;14.40;67.40
29345;DHT22;16339;48.748;2.222;2022-09-21T06:10:59;14.40;67.30
29345;DHT22;16339;48.748;2.222;2022-09-21T06:13:28;14.40;67.10
29345;DHT22;16339;48.748;2.222;2022-09-21T06:16:00;14.40;66.40
29345;DHT22;16339;48.748;2.222;2022-09-21T06:18:29;14.50;66.30
29345;DHT22;16339;48.748;2.222;2022-09-21T06:20:58;14.50;64.70
29345;DHT22;16339;48.748;2.222;2022-09-21T06:23:27;14.50;64.40
29345;DHT22;16339;48.748;2.222;2022-09-21T06:25:56;14.50;64.20
29345;DHT22;16339;48.748;2.222;2022-09-21T06:28:25;14.60;64.30
29345;DHT22;16339;48.748;2.222;2022-09-21T06:30:55;14.50;64.00
29345;DHT22;16339;48.748;2.222;2022-09-21T06:33:27;14.50;64.00
29345;DHT22;16339;48.748;2.222;2022-09-21T06:35:57;14.60;64.10
29345;DHT22;16339;48.748;2.222;2022-09-21T06:38:26;14.60;64.10
29345;DHT22;16339;48.748;2.222;2022-09-21T06:41:00;14.70;64.30
29345;DHT22;16339;48.748;2.222;2022-09-21T06:43:30;14.70;64.60
29345;DHT22;16339;48.748;2.222;2022-09-21T06:46:00;14.70;64.70
29345;DHT22;16339;48.748;2.222;2022-09-21T06:48:33;14.80;64.90
29345;DHT22;16339;48.748;2.222;2022-09-21T06:51:04;14.80;65.20
29345;DHT22;16339;48.748;2.222;2022-09-21T06:53:33;14.90;66.30
29345;DHT22;16339;48.748;2.222;2022-09-21T06:56:03;14.90;65.60
29345;DHT22;16339;48.748;2.222;2022-09-21T06:58:33;15.00;65.80
29345;DHT22;16339;48.748;2.222;2022-09-21T07:01:04;15.00;66.70
29345;DHT22;16339;48.748;2.222;2022-09-21T07:03:37;15.10;66.00
29345;DHT22;16339;48.748;2.222;2022-09-21T07:06:07;15.10;66.20
29345;DHT22;16339;48.748;2.222;2022-09-21T07:08:45;15.20;66.50
29345;DHT22;16339;48.748;2.222;2022-09-21T07:11:17;15.30;66.70
29345;DHT22;16339;48.748;2.222;2022-09-21T07:13:46;15.30;66.60
29345;DHT22;16339;48.748;2.222;2022-09-21T07:16:15;15.40;66.80
29345;DHT22;16339;48.748;2.222;2022-09-21T07:18:46;15.50;67.00
29345;DHT22;16339;48.748;2.222;2022-09-21T07:21:15;15.50;67.20
29345;DHT22;16339;48.748;2.222;2022-09-21T07:23:44;15.60;67.10
29345;DHT22;16339;48.748;2.222;2022-09-21T07:26:13;15.60;67.00
29345;DHT22;16339;48.748;2.222;2022-09-21T07:28:42;15.70;66.80
29345;DHT22;16339;48.748;2.222;2022-09-21T07:31:12;15.80;66.60
29345;DHT22;16339;48.748;2.222;2022-09-21T07:33:43;15.80;66.50
29345;DHT22;16339;48.748;2.222;2022-09-21T07:36:14;15.90;66.30
29345;DHT22;16339;48.748;2.222;2022-09-21T07:38:43;16.00;66.10
29345;DHT22;16339;48.748;2.222;2022-09-21T07:41:14;16.00;65.90
29345;DHT22;16339;48.748;2.222;2022-09-21T07:43:43;16.10;65.80
29345;DHT22;16339;48.748;2.222;2022-09-21T07:46:13;16.10;65.80
29345;DHT22;16339;48.748;2.222;2022-09-21T07:48:42;16.20;65.80
29345;DHT22;16339;48.748;2.222;2022-09-21T07:51:14;16.20;65.80
29345;DHT22;16339;48.748;2.222;2022-09-21T07:53:43;16.30;65.80
29345;DHT22;16339;48.748;2.222;2022-09-21T07:56:14;16.40;65.70
29345;DHT22;16339;48.748;2.222;2022-09-21T07:58:44;16.40;65.50
29345;DHT22;16339;48.748;2.222;2022-09-21T08:01:26;16.40;65.40
29345;DHT22;16339;48.748;2.222;2022-09-21T08:03:56;16.50;65.80
29345;DHT22;16339;48.748;2.222;2022-09-21T08:06:29;16.50;65.40
29345;DHT22;16339;48.748;2.222;2022-09-21T08:08:58;16.60;64.60
29345;DHT22;16339;48.748;2.222;2022-09-21T08:11:28;16.60;64.20
29345;DHT22;16339;48.748;2.222;2022-09-21T08:14:00;16.60;64.10
29345;DHT22;16339;48.748;2.222;2022-09-21T08:16:30;16.70;64.00
29345;DHT22;16339;48.748;2.222;2022-09-21T08:18:59;16.70;63.70
29345;DHT22;16339;48.748;2.222;2022-09-21T08:21:31;16.80;63.40
29345;DHT22;16339;48.748;2.222;2022-09-21T08:24:00;16.80;63.00
29345;DHT22;16339;48.748;2.222;2022-09-21T08:26:29;16.80;62.50
29345;DHT22;16339;48.748;2.222;2022-09-21T08:28:58;16.80;62.30
29345;DHT22;16339;48.748;2.222;2022-09-21T08:31:27;16.90;62.20
29345;DHT22;16339;48.748;2.222;2022-09-21T08:33:56;16.90;62.10
29345;DHT22;16339;48.748;2.222;2022-09-21T08:36:25;17.00;61.90
29345;DHT22;16339;48.748;2.222;2022-09-21T08:38:57;17.00;61.30
29345;DHT22;16339;48.748;2.222;2022-09-21T08:41:55;17.00;61.00
29345;DHT22;16339;48.748;2.222;2022-09-21T08:44:28;17.00;60.60
29345;DHT22;16339;48.748;2.222;2022-09-21T08:47:03;17.10;60.50
29345;DHT22;16339;48.748;2.222;2022-09-21T08:49:36;17.10;60.00
29345;DHT22;16339;48.748;2.222;2022-09-21T08:52:10;17.10;60.10
29345;DHT22;16339;48.748;2.222;2022-09-21T08:54:48;17.10;60.00
29345;DHT22;16339;48.748;2.222;2022-09-21T08:57:19;17.10;60.10
29345;DHT22;16339;48.748;2.222;2022-09-21T08:59:50;17.20;59.60
29345;DHT22;16339;48.748;2.222;2022-09-21T09:02:39;17.30;59.60
29345;DHT22;16339;48.748;2.222;2022-09-21T09:05:24;17.20;59.10
29345;DHT22;16339;48.748;2.222;2022-09-21T09:10:56;17.20;58.90
29345;DHT22;16339;48.748;2.222;2022-09-21T09:13:45;17.30;58.80
29345;DHT22;16339;48.748;2.222;2022-09-21T09:16:19;17.30;58.70
29345;DHT22;16339;48.748;2.222;2022-09-21T09:18:52;17.30;58.70
29345;DHT22;16339;48.748;2.222;2022-09-21T09:21:24;17.30;58.50
29345;DHT22;16339;48.748;2.222;2022-09-21T09:23:58;17.40;58.60
29345;DHT22;16339;48.748;2.222;2022-09-21T09:26:35;17.30;58.40
29345;DHT22;16339;48.748;2.222;2022-09-21T09:29:15;17.40;58.50
29345;DHT22;16339;48.748;2.222;2022-09-21T09:31:47;17.40;58.40
29345;DHT22;16339;48.748;2.222;2022-09-21T09:34:19;17.40;58.50
29345;DHT22;16339;48.748;2.222;2022-09-21T09:36:53;17.30;58.20
29345;DHT22;16339;48.748;2.222;2022-09-21T09:39:26;17.40;58.10
29345;DHT22;16339;48.748;2.222;2022-09-21T09:47:56;17.50;58.40
29345;DHT22;16339;48.748;2.222;2022-09-21T09:50:31;17.50;58.50
29345;DHT22;16339;48.748;2.222;2022-09-21T09:53:03;17.60;58.50
29345;DHT22;16339;48.748;2.222;2022-09-21T09:55:34;17.60;58.40
29345;DHT22;16339;48.748;2.222;2022-09-21T09:58:15;17.70;58.50
29345;DHT22;16339;48.748;2.222;2022-09-21T10:00:45;17.70;58.50
29345;DHT22;16339;48.748;2.222;2022-09-21T10:03:16;17.70;57.80
29345;DHT22;16339;48.748;2.222;2022-09-21T10:05:45;17.70;57.50
29345;DHT22;16339;48.748;2.222;2022-09-21T10:08:38;17.70;57.30
29345;DHT22;16339;48.748;2.222;2022-09-21T10:11:16;17.70;57.50
29345;DHT22;16339;48.748;2.222;2022-09-21T10:13:48;17.70;57.30
29345;DHT22;16339;48.748;2.222;2022-09-21T10:16:19;17.70;57.10
29345;DHT22;16339;48.748;2.222;2022-09-21T10:18:51;17.70;57.00
29345;DHT22;16339;48.748;2.222;2022-09-21T10:21:22;17.70;56.80
29345;DHT22;16339;48.748;2.222;2022-09-21T10:23:55;17.70;56.70
29345;DHT22;16339;48.748;2.222;2022-09-21T10:26:30;17.80;56.60
29345;DHT22;16339;48.748;2.222;2022-09-21T10:29:17;17.80;56.20
29345;DHT22;16339;48.748;2.222;2022-09-21T10:31:56;17.80;56.30
29345;DHT22;16339;48.748;2.222;2022-09-21T10:34:26;17.90;56.00
29345;DHT22;16339;48.748;2.222;2022-09-21T10:36:57;17.90;55.70
29345;DHT22;16339;48.748;2.222;2022-09-21T10:39:27;17.90;55.50
29345;DHT22;16339;48.748;2.222;2022-09-21T10:42:00;18.00;55.50
29345;DHT22;16339;48.748;2.222;2022-09-21T10:44:39;18.00;55.60
29345;DHT22;16339;48.748;2.222;2022-09-21T10:47:20;17.90;55.50
29345;DHT22;16339;48.748;2.222;2022-09-21T10:49:50;17.90;55.60
29345;DHT22;16339;48.748;2.222;2022-09-21T10:52:21;17.90;55.60
29345;DHT22;16339;48.748;2.222;2022-09-21T10:54:54;17.90;55.80
29345;DHT22;16339;48.748;2.222;2022-09-21T10:57:25;18.00;55.60
29345;DHT22;16339;48.748;2.222;2022-09-21T10:59:57;18.00;56.10
29345;DHT22;16339;48.748;2.222;2022-09-21T11:02:37;18.00;55.70
29345;DHT22;16339;48.748;2.222;2022-09-21T11:05:12;18.10;55.80
29345;DHT22;16339;48.748;2.222;2022-09-21T11:07:46;18.10;55.10
29345;DHT22;16339;48.748;2.222;2022-09-21T11:10:22;18.20;55.20
29345;DHT22;16339;48.748;2.222;2022-09-21T11:13:04;18.30;55.00
29345;DHT22;16339;48.748;2.222;2022-09-21T11:15:49;18.40;54.50
29345;DHT22;16339;48.748;2.222;2022-09-21T11:18:21;18.40;54.20
29345;DHT22;16339;48.748;2.222;2022-09-21T11:20:57;18.50;54.00
29345;DHT22;16339;48.748;2.222;2022-09-21T11:23:39;18.50;54.10
29345;DHT22;16339;48.748;2.222;2022-09-21T11:26:14;18.50;54.10
29345;DHT22;16339;48.748;2.222;2022-09-21T11:28:50;18.50;53.90
29345;DHT22;16339;48.748;2.222;2022-09-21T11:31:40;18.60;53.70
29345;DHT22;16339;48.748;2.222;2022-09-21T11:34:36;18.60;52.70
29345;DHT22;16339;48.748;2.222;2022-09-21T11:37:13;18.70;53.20
29345;DHT22;16339;48.748;2.222;2022-09-21T11:39:58;18.80;53.10
29345;DHT22;16339;48.748;2.222;2022-09-21T11:42:44;18.90;52.70
29345;DHT22;16339;48.748;2.222;2022-09-21T11:45:31;18.90;52.00
29345;DHT22;16339;48.748;2.222;2022-09-21T11:48:14;19.00;52.30
29345;DHT22;16339;48.748;2.222;2022-09-21T11:50:55;19.00;52.30
29345;DHT22;16339;48.748;2.222;2022-09-21T11:53:37;19.10;51.00
29345;DHT22;16339;48.748;2.222;2022-09-21T11:56:32;19.10;51.50
29345;DHT22;16339;48.748;2.222;2022-09-21T11:59:20;19.20;51.90
29345;DHT22;16339;48.748;2.222;2022-09-21T12:02:03;19.20;51.50
29345;DHT22;16339;48.748;2.222;2022-09-21T12:04:48;19.20;51.20
29345;DHT22;16339;48.748;2.222;2022-09-21T12:07:29;19.20;51.30
29345;DHT22;16339;48.748;2.222;2022-09-21T12:10:29;19.30;50.60
29345;DHT22;16339;48.748;2.222;2022-09-21T12:13:06;19.30;50.60
29345;DHT22;16339;48.748;2.222;2022-09-21T12:15:40;19.40;50.20
29345;DHT22;16339;48.748;2.222;2022-09-21T12:18:19;19.40;49.40
29345;DHT22;16339;48.748;2.222;2022-09-21T12:20:57;19.30;48.50
29345;DHT22;16339;48.748;2.222;2022-09-21T12:23:33;19.30;48.50
29345;DHT22;16339;48.748;2.222;2022-09-21T12:26:05;19.40;49.40
29345;DHT22;16339;48.748;2.222;2022-09-21T12:28:37;19.50;49.60
29345;DHT22;16339;48.748;2.222;2022-09-21T12:31:11;19.50;49.40
29345;DHT22;16339;48.748;2.222;2022-09-21T12:33:48;19.60;49.40
29345;DHT22;16339;48.748;2.222;2022-09-21T12:36:24;19.60;49.00
29345;DHT22;16339;48.748;2.222;2022-09-21T12:39:00;19.70;48.80
29345;DHT22;16339;48.748;2.222;2022-09-21T12:41:36;19.80;48.20
29345;DHT22;16339;48.748;2.222;2022-09-21T12:44:16;19.90;47.70
29345;DHT22;16339;48.748;2.222;2022-09-21T12:46:52;20.00;47.90
29345;DHT22;16339;48.748;2.222;2022-09-21T12:49:37;20.10;47.90
29345;DHT22;16339;48.748;2.222;2022-09-21T12:52:13;20.20;47.80
29345;DHT22;16339;48.748;2.222;2022-09-21T12:54:48;20.40;47.40
29345;DHT22;16339;48.748;2.222;2022-09-21T12:57:24;20.40;47.00
29345;DHT22;16339;48.748;2.222;2022-09-21T12:59:59;20.50;47.10
29345;DHT22;16339;48.748;2.222;2022-09-21T13:02:34;20.60;47.30
29345;DHT22;16339;48.748;2.222;2022-09-21T13:05:11;20.60;47.10
29345;DHT22;16339;48.748;2.222;2022-09-21T13:10:44;20.40;47.00
29345;DHT22;16339;48.748;2.222;2022-09-21T13:13:24;20.30;46.80
29345;DHT22;16339;48.748;2.222;2022-09-21T13:15:55;20.30;46.90
29345;DHT22;16339;48.748;2.222;2022-09-21T13:18:27;20.40;46.90
29345;DHT22;16339;48.748;2.222;2022-09-21T13:20:59;20.50;46.80
29345;DHT22;16339;48.748;2.222;2022-09-21T13:23:38;20.50;45.80
29345;DHT22;16339;48.748;2.222;2022-09-21T13:26:11;20.60;46.10
29345;DHT22;16339;48.748;2.222;2022-09-21T13:29:03;20.70;45.70
29345;DHT22;16339;48.748;2.222;2022-09-21T13:31:40;20.80;45.60
29345;DHT22;16339;48.748;2.222;2022-09-21T13:34:24;20.90;45.40
29345;DHT22;16339;48.748;2.222;2022-09-21T13:49:22;21.10;43.80
29345;DHT22;16339;48.748;2.222;2022-09-21T13:51:55;21.10;44.00
29345;DHT22;16339;48.748;2.222;2022-09-21T13:54:27;21.00;44.10
29345;DHT22;16339;48.748;2.222;2022-09-21T13:57:01;21.10;44.00
29345;DHT22;16339;48.748;2.222;2022-09-21T13:59:32;20.90;44.10
29345;DHT22;16339;48.748;2.222;2022-09-21T14:02:19;20.80;43.70
29345;DHT22;16339;48.748;2.222;2022-09-21T14:04:54;20.90;44.10
29345;DHT22;16339;48.748;2.222;2022-09-21T14:07:28;21.10;44.30
29345;DHT22;16339;48.748;2.222;2022-09-21T14:10:00;21.10;44.00
29345;DHT22;16339;48.748;2.222;2022-09-21T14:12:33;21.30;43.40
29345;DHT22;16339;48.748;2.222;2022-09-21T14:18:15;21.30;42.20
29345;DHT22;16339;48.748;2.222;2022-09-21T14:24:16;21.30;43.10
29345;DHT22;16339;48.748;2.222;2022-09-21T14:26:54;21.40;43.20
29345;DHT22;16339;48.748;2.222;2022-09-21T14:29:28;21.50;43.30
29345;DHT22;16339;48.748;2.222;2022-09-21T14:32:02;21.60;42.70
29345;DHT22;16339;48.748;2.222;2022-09-21T14:34:36;21.60;42.70
29345;DHT22;16339;48.748;2.222;2022-09-21T14:37:13;21.70;42.80
29345;DHT22;16339;48.748;2.222;2022-09-21T14:39:48;21.70;42.70
29345;DHT22;16339;48.748;2.222;2022-09-21T14:42:18;21.60;42.90
29345;DHT22;16339;48.748;2.222;2022-09-21T14:44:49;21.70;43.10
29345;DHT22;16339;48.748;2.222;2022-09-21T14:47:43;21.70;43.20
29345;DHT22;16339;48.748;2.222;2022-09-21T14:50:34;21.80;43.90
29345;DHT22;16339;48.748;2.222;2022-09-21T14:56:29;21.80;43.10
29345;DHT22;16339;48.748;2.222;2022-09-21T14:59:11;21.90;43.40
29345;DHT22;16339;48.748;2.222;2022-09-21T15:01:54;21.90;43.40
29345;DHT22;16339;48.748;2.222;2022-09-21T15:04:58;22.00;43.00
29345;DHT22;16339;48.748;2.222;2022-09-21T15:07:36;21.90;42.70
29345;DHT22;16339;48.748;2.222;2022-09-21T15:10:23;22.00;42.90
29345;DHT22;16339;48.748;2.222;2022-09-21T15:13:18;22.00;42.40
29345;DHT22;16339;48.748;2.222;2022-09-21T15:16:02;22.00;42.30
29345;DHT22;16339;48.748;2.222;2022-09-21T15:18:34;22.00;42.20
29345;DHT22;16339;48.748;2.222;2022-09-21T15:21:19;22.00;42.40
29345;DHT22;16339;48.748;2.222;2022-09-21T15:23:50;22.00;42.10
29345;DHT22;16339;48.748;2.222;2022-09-21T15:26:22;22.00;42.20
29345;DHT22;16339;48.748;2.222;2022-09-21T15:28:58;22.00;42.30
29345;DHT22;16339;48.748;2.222;2022-09-21T15:31:31;22.00;42.30
29345;DHT22;16339;48.748;2.222;2022-09-21T15:34:03;22.00;42.00
29345;DHT22;16339;48.748;2.222;2022-09-21T15:36:37;22.00;42.00
29345;DHT22;16339;48.748;2.222;2022-09-21T15:39:06;22.00;41.90
29345;DHT22;16339;48.748;2.222;2022-09-21T15:41:47;22.00;42.50
29345;DHT22;16339;48.748;2.222;2022-09-21T15:44:23;22.00;42.80
29345;DHT22;16339;48.748;2.222;2022-09-21T15:46:54;22.00;42.70
29345;DHT22;16339;48.748;2.222;2022-09-21T15:49:27;22.00;42.50
29345;DHT22;16339;48.748;2.222;2022-09-21T15:52:00;22.00;42.40
29345;DHT22;16339;48.748;2.222;2022-09-21T15:54:33;22.00;42.50
29345;DHT22;16339;48.748;2.222;2022-09-21T15:57:05;22.00;42.70
29345;DHT22;16339;48.748;2.222;2022-09-21T15:59:51;22.00;42.10
29345;DHT22;16339;48.748;2.222;2022-09-21T16:02:23;22.00;42.30
29345;DHT22;16339;48.748;2.222;2022-09-21T16:04:52;22.00;42.10
29345;DHT22;16339;48.748;2.222;2022-09-21T16:07:28;22.00;41.90
29345;DHT22;16339;48.748;2.222;2022-09-21T16:09:58;22.00;41.30
29345;DHT22;16339;48.748;2.222;2022-09-21T16:12:45;22.00;41.50
29345;DHT22;16339;48.748;2.222;2022-09-21T16:15:23;22.00;41.50
29345;DHT22;16339;48.748;2.222;2022-09-21T16:17:55;22.00;41.50
29345;DHT22;16339;48.748;2.222;2022-09-21T16:20:38;22.00;41.30
29345;DHT22;16339;48.748;2.222;2022-09-21T16:23:13;22.10;41.20
29345;DHT22;16339;48.748;2.222;2022-09-21T16:25:42;22.10;41.00
29345;DHT22;16339;48.748;2.222;2022-09-21T16:28:39;22.10;40.60
29345;DHT22;16339;48.748;2.222;2022-09-21T16:31:37;22.30;40.60
29345;DHT22;16339;48.748;2.222;2022-09-21T16:34:30;22.30;40.30
29345;DHT22;16339;48.748;2.222;2022-09-21T16:37:20;22.30;40.00
29345;DHT22;16339;48.748;2.222;2022-09-21T16:39:49;22.30;40.30
29345;DHT22;16339;48.748;2.222;2022-09-21T16:42:18;22.20;40.70
29345;DHT22;16339;48.748;2.222;2022-09-21T16:44:48;22.40;41.10
29345;DHT22;16339;48.748;2.222;2022-09-21T16:47:24;22.70;40.00
29345;DHT22;16339;48.748;2.222;2022-09-21T16:49:54;23.30;39.00
29345;DHT22;16339;48.748;2.222;2022-09-21T16:52:27;23.80;38.00
29345;DHT22;16339;48.748;2.222;2022-09-21T16:54:57;23.80;37.70